createdAt,value
2022-09-07T00:28:21.851Z,10.31
2022-09-07T00:39:46.131Z,10.20
2022-09-07T00:51:13.688Z,10.03
2022-09-07T01:02:30.121Z,9.79
2022-09-07T01:13:38.182Z,9.73
2022-09-07T01:36:44.274Z,9.77
2022-09-07T01:48:09.583Z,9.45
2022-09-07T01:59:40.788Z,9.18
2022-09-07T02:11:01.593Z,8.98
2022-09-07T02:56:07.818Z,8.69
2022-09-07T03:07:36.093Z,8.40
2022-09-07T03:19:01.081Z,8.33
2022-09-07T03:30:25.142Z,8.35
2022-09-07T04:16:04.852Z,8.09
2022-09-07T06:19:57.337Z,12.88
2022-09-07T06:31:12.826Z,13.44
2022-09-07T06:42:27.925Z,13.77
2022-09-07T06:53:43.141Z,13.96
2022-09-07T07:04:51.218Z,14.33
2022-09-07T07:16:06.866Z,15.57
2022-09-07T07:26:50.164Z,16.45
2022-09-07T07:37:30.258Z,16.99
2022-09-07T07:48:11.541Z,17.22
2022-09-07T07:59:18.373Z,17.35
2022-09-07T08:10:22.007Z,17.49
2022-09-07T08:21:08.711Z,17.68
2022-09-07T08:32:15.011Z,17.89
2022-09-07T08:43:48.986Z,18.06
2022-09-07T08:54:10.826Z,18.15
2022-09-07T09:05:16.171Z,18.29
2022-09-07T09:15:35.898Z,18.53
2022-09-07T09:26:04.693Z,18.68
2022-09-07T09:36:44.430Z,18.72
2022-09-07T10:09:23.787Z,19.07
2022-09-07T10:19:50.780Z,19.22
2022-09-07T10:29:55.231Z,19.21
2022-09-07T10:41:00.955Z,19.40
2022-09-07T10:51:59.174Z,19.51
2022-09-07T11:13:30.738Z,19.68
2022-09-07T11:24:02.021Z,19.94
2022-09-07T11:34:25.269Z,20.01
2022-09-07T11:45:06.358Z,20.16
2022-09-07T11:55:25.510Z,20.28
2022-09-07T12:06:12.001Z,20.40
2022-09-07T12:17:00.690Z,20.55
2022-09-07T12:27:25.573Z,20.62
2022-09-07T12:38:00.611Z,20.67
2022-09-07T12:48:49.001Z,20.69
2022-09-07T12:59:29.427Z,20.82
2022-09-07T13:10:12.203Z,20.90
2022-09-07T13:20:36.221Z,20.88
2022-09-07T13:31:25.976Z,20.94
2022-09-07T13:41:37.713Z,20.98
2022-09-07T13:52:27.163Z,21.03
2022-09-07T14:02:53.180Z,21.06
2022-09-07T14:13:06.997Z,21.16
2022-09-07T14:23:32.040Z,21.16
2022-09-07T14:33:37.893Z,21.17
2022-09-07T14:44:03.064Z,21.20
2022-09-07T14:54:31.497Z,21.13
2022-09-07T15:04:36.197Z,21.10
2022-09-07T15:14:45.677Z,21.07
2022-09-07T15:25:03.765Z,21.07
2022-09-07T15:35:12.603Z,21.00
2022-09-07T15:45:32.181Z,20.91
2022-09-07T15:55:37.201Z,20.77
2022-09-07T16:05:53.132Z,20.63
2022-09-07T16:16:04.763Z,20.40
2022-09-07T16:26:12.320Z,20.17
2022-09-07T16:36:38.394Z,19.92
2022-09-07T16:47:13.012Z,19.55
2022-09-07T16:57:22.766Z,19.10
2022-09-07T17:07:28.939Z,18.56
2022-09-07T17:17:47.695Z,18.01
2022-09-07T17:28:01.363Z,17.58
2022-09-07T17:49:25.241Z,16.75
2022-09-07T18:00:11.336Z,16.49
2022-09-07T18:22:26.303Z,15.82
2022-09-07T18:33:31.579Z,15.55
2022-09-07T18:45:27.097Z,15.34
2022-09-07T18:55:40.546Z,15.15
2022-09-07T19:06:36.729Z,15.06
2022-09-07T19:17:43.925Z,14.92
2022-09-07T19:28:36.647Z,14.92
2022-09-07T19:39:40.537Z,14.80
2022-09-07T19:50:30.906Z,14.71
2022-09-07T20:01:46.947Z,14.72
2022-09-07T20:12:49.031Z,14.84
2022-09-07T20:23:49.314Z,15.03
2022-09-07T20:34:46.289Z,15.14
2022-09-07T20:45:35.755Z,15.15
2022-09-07T20:56:13.347Z,15.12
2022-09-07T21:07:10.375Z,15.08
2022-09-07T21:18:14.337Z,14.92
2022-09-07T21:29:18.293Z,14.72
2022-09-07T21:40:32.485Z,14.45
2022-09-07T21:51:43.630Z,14.22
2022-09-07T22:02:46.436Z,14.08
2022-09-07T22:14:10.579Z,13.90
2022-09-07T22:25:16.139Z,13.67
2022-09-07T22:36:23.036Z,13.48
2022-09-07T22:47:48.920Z,13.31
2022-09-07T23:10:14.811Z,12.99
2022-09-07T23:21:33.598Z,12.75
2022-09-07T23:32:47.550Z,12.62
